Ana Sayfa
METAR-TAF:

METAR-TAF

Havaalanları :

Koltsovo Havalimanı

Yekaterinburg, Rusya

Enlem: 56-50N, Boylam: 060-38E, yükseklik: 237 m

Güncel hava durumu gözlemi

Rapor saat 04:00 UTC de 45 dakika önce yapıldı.
Sakin rüzgar
Sıcaklık 14°C
Nem 82%
Basınç 1018 hPa
Görüş mesafesi 10 km veya daha fazla
1500 m altında bulut yok ve kümülonimbus yok

METAR: USSS 250400Z 00000MPS CAVOK 14/11 Q1018 R26L/010060 R26R/090060 NOSIG RMK QFE742/0990

Saat: 09:45 (04:45 UTC)

Tahmin

Rapor saat 01:58 UTC de 2 saat ve 47 dakika önce yapıldı.
Ayın 25'si saat 03 UTC'den ayın 26'si saat 03 UTC'ye kadar geçerli Tahmin
Rüzgar güney/güneydoğudan 6 kt
Görüş mesafesi: 3100 m
Pus
Ayın 25'si saat 0500 UTC'den
Rüzgar güneydan 10 kt ve 25 kt'a kadar ani rüzgarlar
Görüş mesafesi 10 km veya daha fazla
2000 ft yükseklikte parçalı bulutlu, Kümülonimbus.

TAF: USSS 250158Z 2503/2603 16003MPS 3100 BR NSC FM250500 19005G13MPS 9999 SCT020CB

4.000'den fazla havaalanı için hava durumu gözlemleri ve tahminleri (METAR ve TAF raporları).

Kullanılabilir istasyonlar harita üzerinde sarı ve kırmızı noktalarla gösterilir.

İstasyonun adını görmek için fareyi noktanın üzerinde gezdirin.

Sonrasında hava gözlem ve tahminlerini görmek için tıklayın.

Haritayı değiştirmek için: yaklaştırmak için siyah artı işaretli yeşil düğmeye ve uzaklaştırmak için de eksi işaretli düğmeye hızla tıklayın; bitişik haritalar için yeşil okları kullanın.


METAR-TAF: